createdAt,value
2019-04-11T00:01:53.023Z,92.60
2019-04-11T00:04:22.033Z,92.70
2019-04-11T00:06:52.003Z,93.10
2019-04-11T00:09:20.969Z,93.40
2019-04-11T00:11:50.372Z,93.70
2019-04-11T00:14:20.015Z,93.90
2019-04-11T00:16:49.869Z,93.90
2019-04-11T00:19:19.096Z,94.00
2019-04-11T00:21:48.898Z,94.10
2019-04-11T00:24:18.716Z,94.20
2019-04-11T00:26:48.622Z,94.10
2019-04-11T00:29:18.462Z,94.20
2019-04-11T00:31:48.050Z,94.30
2019-04-11T00:34:18.448Z,94.10
2019-04-11T00:36:48.400Z,93.90
2019-04-11T00:39:17.344Z,93.80
2019-04-11T00:41:46.159Z,93.30
2019-04-11T00:44:15.008Z,93.10
2019-04-11T00:46:44.612Z,92.70
2019-04-11T00:49:14.419Z,92.30
2019-04-11T00:51:44.327Z,91.80
2019-04-11T00:54:14.204Z,91.70
2019-04-11T00:56:44.172Z,91.40
2019-04-11T00:59:14.142Z,91.60
2019-04-11T01:01:43.119Z,91.30
2019-04-11T01:04:11.956Z,91.10
2019-04-11T01:06:40.796Z,91.00
2019-04-11T01:09:11.003Z,91.20
2019-04-11T01:11:40.396Z,91.30
2019-04-11T01:14:09.864Z,91.30
2019-04-11T01:16:40.975Z,91.20
2019-04-11T01:19:10.820Z,91.30
2019-04-11T01:21:40.410Z,91.30
2019-04-11T01:24:09.428Z,91.40
2019-04-11T01:26:38.268Z,91.20
2019-04-11T01:29:07.201Z,91.10
2019-04-11T01:31:37.839Z,91.80
2019-04-11T01:34:06.668Z,91.90
2019-04-11T01:36:35.539Z,92.60
2019-04-11T01:39:14.456Z,93.20
2019-04-11T01:41:43.349Z,93.00
2019-04-11T01:44:12.396Z,93.10
2019-04-11T01:46:42.366Z,93.70
2019-04-11T01:49:14.289Z,94.00
2019-04-11T01:51:43.288Z,94.30
2019-04-11T01:54:13.223Z,94.40
2019-04-11T01:56:42.196Z,94.10
2019-04-11T01:59:11.132Z,94.20
2019-04-11T02:01:58.056Z,94.20
2019-04-11T02:04:32.083Z,94.10
2019-04-11T02:07:01.131Z,94.20
2019-04-11T02:09:30.380Z,94.40
2019-04-11T02:11:59.408Z,94.70
2019-04-11T02:14:28.256Z,94.90
2019-04-11T02:16:57.196Z,94.70
2019-04-11T02:19:26.060Z,94.80
2019-04-11T02:21:56.464Z,94.90
2019-04-11T02:24:30.040Z,95.20
2019-04-11T02:27:00.819Z,95.10
2019-04-11T02:29:29.854Z,95.40
2019-04-11T02:32:01.287Z,95.40
2019-04-11T02:34:29.705Z,95.70
2019-04-11T02:37:00.141Z,95.70
2019-04-11T02:39:30.820Z,95.60
2019-04-11T02:42:01.423Z,95.30
2019-04-11T02:44:49.599Z,95.40
2019-04-11T02:47:08.459Z,95.30
2019-04-11T02:49:32.919Z,95.50
2019-04-11T02:52:02.717Z,95.70
2019-04-11T02:54:33.552Z,95.40
2019-04-11T02:57:02.739Z,95.60
2019-04-11T02:59:32.509Z,95.70
2019-04-11T03:02:01.505Z,95.90
2019-04-11T03:04:31.132Z,95.50
2019-04-11T03:07:00.660Z,95.40
2019-04-11T03:09:31.052Z,95.20
2019-04-11T03:12:00.721Z,95.10
2019-04-11T03:14:46.384Z,95.20
2019-04-11T03:17:11.978Z,95.20
2019-04-11T03:19:46.848Z,94.90
2019-04-11T03:22:03.143Z,94.80
2019-04-11T03:24:35.273Z,94.80
2019-04-11T03:27:04.793Z,94.90
2019-04-11T03:29:35.633Z,94.90
2019-04-11T03:32:37.233Z,94.80
2019-04-11T03:37:26.103Z,95.00
2019-04-11T03:39:57.325Z,95.30
2019-04-11T03:42:21.941Z,95.50
2019-04-11T03:44:42.738Z,95.60
2019-04-11T03:47:20.302Z,95.80
2019-04-11T03:49:46.690Z,95.80
2019-04-11T03:52:10.613Z,95.90
2019-04-11T03:54:41.021Z,95.90
2019-04-11T03:57:10.740Z,96.30
2019-04-11T03:59:40.695Z,96.50
2019-04-11T04:02:10.795Z,96.50
2019-04-11T04:04:41.533Z,96.70
2019-04-11T04:07:13.112Z,97.00
2019-04-11T04:09:43.964Z,96.70
2019-04-11T04:12:13.670Z,96.60
2019-04-11T04:14:46.780Z,96.30
2019-04-11T04:17:27.779Z,96.20
2019-04-11T04:20:08.768Z,96.40
2019-04-11T04:22:56.491Z,96.60
2019-04-11T04:25:26.137Z,96.70
2019-04-11T04:27:56.747Z,96.10
2019-04-11T04:30:27.699Z,96.00
2019-04-11T04:32:56.779Z,95.50
2019-04-11T04:35:28.455Z,95.40
2019-04-11T04:37:57.174Z,95.70
2019-04-11T04:40:47.279Z,94.90
2019-04-11T04:43:01.403Z,94.40
2019-04-11T04:45:49.554Z,93.90
2019-04-11T04:48:07.277Z,93.50
2019-04-11T04:50:32.032Z,92.70
2019-04-11T04:53:02.567Z,92.50
2019-04-11T04:55:32.595Z,91.60
2019-04-11T04:58:02.063Z,91.30
2019-04-11T05:00:31.932Z,90.90
2019-04-11T05:03:02.193Z,91.20
2019-04-11T05:05:31.325Z,91.80
2019-04-11T05:08:00.615Z,91.10
2019-04-11T05:10:30.692Z,90.90
2019-04-11T05:12:59.789Z,90.80
2019-04-11T05:15:28.644Z,90.70
2019-04-11T05:17:57.777Z,90.00
2019-04-11T05:20:26.620Z,90.50
2019-04-11T05:22:55.905Z,91.10
2019-04-11T05:25:24.855Z,91.10
2019-04-11T05:27:54.021Z,90.80
2019-04-11T05:30:23.166Z,90.50
2019-04-11T05:32:52.240Z,89.60
2019-04-11T05:35:22.785Z,89.40
2019-04-11T05:37:51.766Z,88.40
2019-04-11T05:40:21.122Z,87.50
2019-04-11T05:42:53.466Z,88.20
2019-04-11T05:45:22.631Z,87.90
2019-04-11T05:47:54.664Z,87.00
2019-04-11T05:50:24.366Z,87.70
2019-04-11T05:52:54.509Z,86.00
2019-04-11T05:55:24.179Z,87.00
2019-04-11T05:57:53.028Z,85.50
2019-04-11T06:00:36.739Z,86.40
2019-04-11T06:03:07.827Z,86.70
2019-04-11T06:05:43.123Z,86.20
2019-04-11T06:08:21.121Z,86.40
2019-04-11T06:10:46.492Z,86.10
2019-04-11T06:13:24.547Z,83.50
2019-04-11T06:16:02.999Z,84.20
2019-04-11T06:18:37.803Z,84.60
2019-04-11T06:21:13.106Z,83.40
2019-04-11T06:23:46.300Z,84.00
2019-04-11T06:26:26.910Z,83.70
2019-04-11T06:28:57.476Z,83.50
2019-04-11T06:31:45.319Z,83.90
2019-04-11T06:34:15.466Z,82.50
2019-04-11T06:36:58.368Z,82.10
2019-04-11T06:39:31.485Z,82.40
2019-04-11T06:42:05.946Z,82.30
2019-04-11T06:44:52.792Z,82.40
2019-04-11T06:47:29.219Z,81.80
2019-04-11T06:50:02.805Z,83.20
2019-04-11T06:52:32.811Z,81.30
2019-04-11T06:55:04.500Z,80.70
2019-04-11T06:57:34.396Z,79.50
2019-04-11T07:00:05.211Z,80.30
2019-04-11T07:02:36.851Z,79.50
2019-04-11T07:05:12.071Z,79.10
2019-04-11T07:07:43.031Z,79.60
2019-04-11T07:10:12.139Z,78.70
2019-04-11T07:12:45.439Z,79.10
2019-04-11T07:15:16.157Z,78.40
2019-04-11T07:17:49.576Z,77.90
2019-04-11T07:20:20.750Z,78.70
2019-04-11T07:23:07.948Z,77.70
2019-04-11T07:25:44.912Z,78.40
2019-04-11T07:28:18.693Z,78.00
2019-04-11T07:31:06.781Z,79.40
2019-04-11T07:33:43.397Z,77.80
2019-04-11T07:36:31.545Z,78.00
2019-04-11T07:39:05.551Z,78.50
2019-04-11T07:41:39.926Z,78.30
2019-04-11T07:44:11.141Z,77.50
2019-04-11T07:47:01.391Z,77.50
2019-04-11T07:49:44.959Z,77.00
2019-04-11T07:52:15.810Z,77.90
2019-04-11T07:54:45.638Z,77.30
2019-04-11T07:57:33.001Z,77.40
2019-04-11T08:00:06.570Z,78.20
2019-04-11T08:02:53.289Z,77.60
2019-04-11T08:05:38.886Z,78.00
2019-04-11T08:08:09.524Z,77.40
2019-04-11T08:10:48.984Z,77.20
2019-04-11T08:13:31.343Z,77.10
2019-04-11T08:16:18.222Z,77.70
2019-04-11T08:18:48.826Z,77.50
2019-04-11T08:21:26.219Z,77.70
2019-04-11T08:23:56.712Z,77.00
2019-04-11T08:26:44.353Z,76.40
2019-04-11T08:29:15.694Z,76.60
2019-04-11T08:32:02.567Z,77.50
2019-04-11T08:34:33.243Z,77.90
2019-04-11T08:37:07.382Z,76.60
2019-04-11T08:39:37.383Z,75.30
2019-04-11T08:42:07.929Z,74.30
2019-04-11T08:44:36.780Z,73.70
2019-04-11T08:47:06.064Z,71.50
2019-04-11T08:49:37.495Z,72.20
2019-04-11T08:52:08.087Z,71.70
2019-04-11T08:54:50.234Z,71.60
2019-04-11T08:57:38.721Z,72.20
2019-04-11T09:00:15.708Z,72.70
2019-04-11T09:02:45.034Z,72.30
2019-04-11T09:05:29.161Z,71.60
2019-04-11T09:08:12.114Z,72.70
2019-04-11T09:10:49.693Z,73.00
2019-04-11T09:13:37.670Z,73.40
2019-04-11T09:16:25.675Z,72.70
2019-04-11T09:18:57.336Z,73.00
2019-04-11T09:21:44.660Z,73.30
2019-04-11T09:24:34.597Z,72.60
2019-04-11T09:27:22.652Z,71.50
2019-04-11T09:30:02.610Z,71.80
2019-04-11T09:32:42.643Z,70.90
2019-04-11T09:35:16.469Z,69.30
2019-04-11T09:37:46.326Z,64.30
2019-04-11T09:40:33.954Z,58.70
2019-04-11T09:43:04.585Z,55.40
2019-04-11T09:45:47.952Z,56.40
2019-04-11T09:48:35.010Z,56.90
2019-04-11T09:51:09.389Z,56.10
2019-04-11T09:53:41.054Z,52.60
2019-04-11T09:56:29.161Z,49.80
2019-04-11T09:59:05.330Z,49.70
2019-04-11T10:01:54.040Z,49.70
2019-04-11T10:04:25.635Z,47.20
2019-04-11T10:07:11.162Z,49.40
2019-04-11T10:10:00.220Z,51.80
2019-04-11T10:12:40.500Z,54.80
2019-04-11T10:15:11.371Z,54.80
2019-04-11T10:17:42.501Z,56.70
2019-04-11T10:20:13.293Z,56.50
2019-04-11T10:22:54.349Z,57.40
2019-04-11T10:25:28.905Z,58.20
2019-04-11T10:28:11.841Z,56.90
2019-04-11T10:30:58.447Z,57.00
2019-04-11T10:33:39.266Z,56.70
2019-04-11T10:36:21.597Z,57.50
2019-04-11T10:38:52.978Z,56.20
2019-04-11T10:41:26.197Z,55.40
2019-04-11T10:43:55.116Z,55.60
2019-04-11T10:46:41.763Z,56.80
2019-04-11T10:49:21.978Z,56.60
2019-04-11T10:52:04.735Z,56.60
2019-04-11T10:54:34.696Z,56.70
2019-04-11T10:57:11.802Z,56.90
2019-04-11T10:59:42.934Z,57.90
2019-04-11T11:02:30.127Z,56.70
2019-04-11T11:04:59.291Z,57.60
2019-04-11T11:07:30.727Z,59.00
2019-04-11T11:10:03.811Z,59.70
2019-04-11T11:12:45.780Z,60.20
2019-04-11T11:18:42.660Z,58.90
2019-04-11T11:20:57.137Z,59.30
2019-04-11T11:23:42.849Z,61.20
2019-04-11T11:26:14.491Z,61.00
2019-04-11T11:28:51.063Z,59.60
2019-04-11T11:31:22.369Z,61.50
2019-04-11T11:33:51.736Z,62.30
2019-04-11T11:36:39.530Z,61.20
2019-04-11T11:39:25.125Z,61.40
2019-04-11T11:42:10.888Z,62.10
2019-04-11T11:44:53.244Z,61.30
2019-04-11T11:47:41.520Z,61.10
2019-04-11T11:50:17.962Z,61.20
2019-04-11T11:52:59.578Z,61.00
2019-04-11T11:55:38.989Z,60.70
2019-04-11T11:58:25.826Z,60.00
2019-04-11T12:00:57.844Z,59.80
2019-04-11T12:03:40.308Z,59.90
2019-04-11T12:06:09.590Z,61.00
2019-04-11T12:08:45.313Z,60.70
2019-04-11T12:11:13.519Z,61.10
2019-04-11T12:14:00.473Z,59.90
2019-04-11T12:16:34.641Z,59.40
2019-04-11T12:19:05.231Z,60.00
2019-04-11T12:21:36.677Z,59.50
2019-04-11T12:24:25.081Z,60.30
2019-04-11T12:27:13.072Z,59.90
2019-04-11T12:29:55.719Z,60.70
2019-04-11T12:32:32.690Z,61.90
2019-04-11T12:35:06.171Z,61.70
2019-04-11T12:37:39.497Z,61.80
2019-04-11T12:40:26.520Z,62.70
2019-04-11T12:42:56.735Z,61.80
2019-04-11T12:45:36.480Z,60.60
2019-04-11T12:48:05.472Z,58.90
2019-04-11T12:50:36.003Z,59.20
2019-04-11T12:53:06.540Z,59.80
2019-04-11T12:55:40.003Z,60.00
2019-04-11T12:58:13.368Z,61.80
2019-04-11T13:00:47.028Z,60.50
2019-04-11T13:03:31.175Z,59.90
2019-04-11T13:06:13.683Z,59.10
2019-04-11T13:09:18.310Z,60.80
2019-04-11T13:11:51.963Z,61.50
2019-04-11T13:14:22.457Z,62.30
2019-04-11T13:16:58.968Z,62.20
2019-04-11T13:19:29.413Z,61.90
2019-04-11T13:21:59.803Z,62.10
2019-04-11T13:24:48.253Z,61.60
2019-04-11T13:27:23.029Z,61.60
2019-04-11T13:30:09.631Z,61.50
2019-04-11T13:32:52.067Z,60.50
2019-04-11T13:35:31.030Z,61.80
2019-04-11T13:38:04.382Z,63.50
2019-04-11T13:40:46.841Z,62.50
2019-04-11T13:43:35.583Z,65.90
2019-04-11T13:46:08.936Z,66.50
2019-04-11T13:48:48.171Z,65.90
2019-04-11T13:51:24.499Z,65.90
2019-04-11T13:54:11.145Z,67.60
2019-04-11T13:56:56.700Z,68.40
2019-04-11T13:59:36.482Z,64.80
2019-04-11T14:02:17.238Z,64.90
2019-04-11T14:04:54.582Z,65.80
2019-04-11T14:07:27.920Z,65.70
2019-04-11T14:09:59.082Z,65.90
2019-04-11T14:12:28.842Z,65.80
2019-04-11T14:14:59.258Z,66.60
2019-04-11T14:17:46.074Z,65.50
2019-04-11T14:20:28.337Z,65.70
2019-04-11T14:22:52.134Z,66.30
2019-04-11T14:25:38.963Z,65.10
2019-04-11T14:28:09.641Z,66.00
2019-04-11T14:30:52.310Z,66.40
2019-04-11T14:33:23.593Z,67.00
2019-04-11T14:36:01.241Z,67.10
2019-04-11T14:38:31.993Z,67.30
2019-04-11T14:41:18.346Z,68.00
2019-04-11T14:43:54.542Z,72.50
2019-04-11T14:46:42.965Z,68.40
2019-04-11T14:49:12.242Z,69.20
2019-04-11T14:51:46.263Z,70.00
2019-04-11T14:54:18.384Z,70.40
2019-04-11T14:56:52.124Z,70.50
2019-04-11T14:59:30.151Z,69.90
2019-04-11T15:02:12.689Z,68.90
2019-04-11T15:04:59.312Z,69.90
2019-04-11T15:07:29.574Z,70.10
2019-04-11T15:09:59.983Z,70.10
2019-04-11T15:12:43.279Z,70.60
2019-04-11T15:15:29.210Z,70.50
2019-04-11T15:17:59.635Z,70.50
2019-04-11T15:20:54.187Z,71.30
2019-04-11T15:23:26.286Z,70.90
2019-04-11T15:25:57.638Z,70.10
2019-04-11T15:28:28.047Z,70.00
2019-04-11T15:31:13.838Z,69.90
2019-04-11T15:33:47.343Z,69.50
2019-04-11T15:36:17.779Z,70.30
2019-04-11T15:38:48.192Z,70.10
2019-04-11T15:41:17.077Z,70.40
2019-04-11T15:43:50.233Z,71.20
2019-04-11T15:46:20.641Z,71.50
2019-04-11T15:49:19.664Z,71.50
2019-04-11T15:51:39.574Z,71.60
2019-04-11T15:54:12.704Z,72.40
2019-04-11T15:56:55.105Z,73.00
2019-04-11T15:59:28.209Z,73.30
2019-04-11T16:02:16.675Z,73.40
2019-04-11T16:04:47.393Z,72.80
2019-04-11T16:07:37.387Z,73.40
2019-04-11T16:10:11.729Z,73.00
2019-04-11T16:12:40.228Z,72.40
2019-04-11T16:15:10.677Z,72.40
2019-04-11T16:17:58.010Z,72.90
2019-04-11T16:20:26.917Z,73.50
2019-04-11T16:23:05.919Z,73.80
2019-04-11T16:25:34.752Z,73.90
2019-04-11T16:28:20.547Z,73.80
2019-04-11T16:30:50.997Z,74.00
2019-04-11T16:33:27.051Z,73.60
2019-04-11T16:36:03.445Z,74.30
2019-04-11T16:38:33.870Z,74.20
2019-04-11T16:41:23.687Z,74.00
2019-04-11T16:43:54.640Z,73.90
2019-04-11T16:46:41.277Z,74.20
2019-04-11T16:49:10.033Z,74.40
2019-04-11T16:51:38.854Z,73.90
2019-04-11T16:54:09.589Z,73.20
2019-04-11T16:56:38.172Z,73.20
2019-04-11T16:59:06.961Z,73.60
2019-04-11T17:01:35.741Z,73.80
2019-04-11T17:04:04.551Z,74.00
2019-04-11T17:06:51.004Z,74.00
2019-04-11T17:09:33.370Z,74.10
2019-04-11T17:12:02.228Z,74.20
2019-04-11T17:14:33.213Z,74.30
2019-04-11T17:17:20.795Z,74.70
2019-04-11T17:19:49.716Z,74.80
2019-04-11T17:22:18.910Z,75.10
2019-04-11T17:24:48.707Z,76.10
2019-04-11T17:27:50.690Z,75.50
2019-04-11T17:30:17.549Z,75.70
2019-04-11T17:32:46.426Z,75.40
2019-04-11T17:35:15.446Z,75.50
2019-04-11T17:37:44.519Z,75.30
2019-04-11T17:40:13.511Z,75.60
2019-04-11T17:42:43.993Z,75.90
2019-04-11T17:45:13.102Z,76.40
2019-04-11T17:47:41.872Z,77.10
2019-04-11T17:50:10.729Z,77.30
2019-04-11T17:52:39.704Z,77.40
2019-04-11T17:55:08.660Z,77.80
2019-04-11T17:57:37.482Z,77.60
2019-04-11T18:00:09.404Z,77.40
2019-04-11T18:02:39.015Z,77.50
2019-04-11T18:05:08.833Z,77.40
2019-04-11T18:07:37.629Z,76.80
2019-04-11T18:10:07.419Z,76.90
2019-04-11T18:12:36.227Z,76.80
2019-04-11T18:15:07.568Z,76.80
2019-04-11T18:17:36.700Z,76.40
2019-04-11T18:20:08.766Z,76.50
2019-04-11T18:22:37.559Z,75.60
2019-04-11T18:25:07.024Z,74.80
2019-04-11T18:27:35.844Z,74.50
2019-04-11T18:30:09.963Z,74.90
2019-04-11T18:32:38.843Z,74.40
2019-04-11T18:35:08.046Z,74.90
2019-04-11T18:37:36.944Z,74.70
2019-04-11T18:40:10.158Z,74.40
2019-04-11T18:42:37.692Z,73.90
2019-04-11T18:45:07.862Z,74.30
2019-04-11T18:47:36.910Z,73.50
2019-04-11T18:50:09.187Z,73.80
2019-04-11T18:52:38.064Z,73.90
2019-04-11T18:55:08.284Z,74.30
2019-04-11T18:57:37.036Z,74.70
2019-04-11T19:00:08.939Z,74.70
2019-04-11T19:02:37.873Z,75.20
2019-04-11T19:05:08.123Z,75.80
2019-04-11T19:07:36.893Z,76.40
2019-04-11T19:10:09.350Z,77.00
2019-04-11T19:12:37.479Z,77.50
2019-04-11T19:15:07.364Z,77.70
2019-04-11T19:17:36.144Z,78.20
2019-04-11T19:20:06.701Z,78.60
2019-04-11T19:22:38.239Z,80.00
2019-04-11T19:25:06.649Z,80.40
2019-04-11T19:27:35.543Z,81.20
2019-04-11T19:30:07.176Z,81.90
2019-04-11T19:32:36.024Z,82.70
2019-04-11T19:35:05.199Z,83.40
2019-04-11T19:37:34.006Z,83.90
2019-04-11T19:40:02.857Z,84.80
2019-04-11T19:42:31.642Z,85.50
2019-04-11T19:45:02.815Z,85.60
2019-04-11T19:47:30.849Z,85.30
2019-04-11T19:49:59.674Z,85.30
2019-04-11T19:52:29.934Z,85.60
2019-04-11T19:55:04.751Z,85.10
2019-04-11T19:57:31.141Z,85.20
2019-04-11T19:59:59.908Z,85.20
2019-04-11T20:02:28.760Z,85.60
2019-04-11T20:04:57.841Z,85.70
2019-04-11T20:07:27.202Z,87.00
2019-04-11T20:09:56.112Z,87.60
2019-04-11T20:12:25.100Z,88.30
2019-04-11T20:14:53.955Z,90.10
2019-04-11T20:17:22.736Z,90.20
2019-04-11T20:20:00.803Z,90.40
2019-04-11T20:22:22.138Z,90.60
2019-04-11T20:24:50.984Z,90.90
2019-04-11T20:27:20.348Z,90.80
2019-04-11T20:29:52.115Z,90.90
2019-04-11T20:32:21.042Z,90.80
2019-04-11T20:34:50.029Z,90.80
2019-04-11T20:37:18.795Z,90.80
2019-04-11T20:39:47.657Z,90.70
2019-04-11T20:42:17.298Z,91.10
2019-04-11T20:44:46.252Z,91.10
2019-04-11T20:47:16.794Z,91.10
2019-04-11T20:49:47.092Z,91.30
2019-04-11T20:52:15.902Z,91.30
2019-04-11T20:54:45.350Z,90.70
2019-04-11T20:57:24.910Z,90.30
2019-04-11T20:59:44.627Z,89.50
2019-04-11T21:02:13.442Z,89.10
2019-04-11T21:04:42.288Z,88.40
2019-04-11T21:07:11.188Z,87.40
2019-04-11T21:09:40.065Z,86.00
2019-04-11T21:12:08.943Z,85.50
2019-04-11T21:14:37.837Z,84.20
2019-04-11T21:17:06.753Z,82.20
2019-04-11T21:19:35.665Z,82.20
2019-04-11T21:22:04.683Z,82.50
2019-04-11T21:24:33.579Z,80.50
2019-04-11T21:27:02.460Z,78.80
2019-04-11T21:29:50.630Z,78.60
2019-04-11T21:32:19.513Z,78.40
2019-04-11T21:34:48.379Z,78.40
2019-04-11T21:37:17.267Z,78.00
2019-04-11T21:39:46.226Z,77.70
2019-04-11T21:42:15.164Z,77.50
2019-04-11T21:44:44.051Z,76.70
2019-04-11T21:47:12.932Z,76.30
2019-04-11T21:49:41.816Z,76.50
2019-04-11T21:52:12.323Z,76.70
2019-04-11T21:54:45.130Z,76.20
2019-04-11T21:57:11.773Z,76.40
2019-04-11T21:59:40.651Z,76.20
2019-04-11T22:02:11.940Z,76.30
2019-04-11T22:04:40.813Z,75.90
2019-04-11T22:07:09.711Z,75.30
2019-04-11T22:09:38.699Z,75.70
2019-04-11T22:12:08.850Z,75.50
2019-04-11T22:14:41.316Z,75.20
2019-04-11T22:17:08.280Z,75.10
2019-04-11T22:19:37.183Z,73.50
2019-04-11T22:22:06.059Z,73.30
2019-04-11T22:24:34.945Z,72.90
2019-04-11T22:27:03.844Z,72.80
2019-04-11T22:29:32.710Z,72.80
2019-04-11T22:32:01.600Z,71.90
2019-04-11T22:34:32.048Z,71.30
2019-04-11T22:37:00.959Z,70.80
2019-04-11T22:39:31.532Z,71.00
2019-04-11T22:42:00.724Z,71.00
2019-04-11T22:44:29.592Z,71.50
2019-04-11T22:46:58.462Z,71.00
2019-04-11T22:49:27.374Z,71.60
2019-04-11T22:51:56.242Z,72.20
2019-04-11T22:54:25.137Z,72.20
2019-04-11T22:56:54.332Z,72.80
2019-04-11T22:59:23.195Z,73.00
2019-04-11T23:01:53.688Z,73.60
2019-04-11T23:04:22.584Z,74.20
2019-04-11T23:06:51.477Z,74.30
2019-04-11T23:09:20.348Z,75.10
2019-04-11T23:11:49.225Z,75.50
2019-04-11T23:14:18.131Z,76.40
2019-04-11T23:16:46.998Z,77.60
2019-04-11T23:19:15.888Z,78.50
2019-04-11T23:21:44.772Z,79.20
2019-04-11T23:24:13.638Z,80.00
2019-04-11T23:26:42.534Z,80.70
2019-04-11T23:29:11.420Z,81.20
2019-04-11T23:31:40.287Z,81.70
2019-04-11T23:34:09.063Z,81.80
2019-04-11T23:36:37.956Z,82.10
2019-04-11T23:39:07.539Z,82.50
2019-04-11T23:41:36.346Z,82.00
2019-04-11T23:44:05.242Z,81.40
2019-04-11T23:46:34.136Z,81.60
2019-04-11T23:49:03.021Z,81.90
2019-04-11T23:51:51.169Z,82.40
2019-04-11T23:54:23.305Z,82.50
2019-04-11T23:56:50.455Z,82.60
2019-04-11T23:59:19.378Z,82.50
